sensor_id;sensor_type;location;lat;lon;timestamp;pressure;altitude;pressure_sealevel;temperature;humidity
26376;BME280;30544;42.196;24.336;2023-03-01T00:01:33;99918.88;;;7.02;100.00
26376;BME280;30544;42.196;24.336;2023-03-01T00:04:00;99910.59;;;7.02;100.00
26376;BME280;30544;42.196;24.336;2023-03-01T00:06:27;99907.44;;;7.11;100.00
26376;BME280;30544;42.196;24.336;2023-03-01T00:08:54;99915.91;;;7.03;100.00
26376;BME280;30544;42.196;24.336;2023-03-01T00:11:25;99909.34;;;7.17;100.00
26376;BME280;30544;42.196;24.336;2023-03-01T00:13:54;99908.13;;;7.46;100.00
26376;BME280;30544;42.196;24.336;2023-03-01T00:16:25;99908.97;;;7.27;100.00
26376;BME280;30544;42.196;24.336;2023-03-01T00:18:53;99915.53;;;7.26;100.00
26376;BME280;30544;42.196;24.336;2023-03-01T00:21:21;99903.22;;;7.35;100.00
26376;BME280;30544;42.196;24.336;2023-03-01T00:23:48;99911.25;;;7.17;100.00
26376;BME280;30544;42.196;24.336;2023-03-01T00:26:17;99905.22;;;6.80;100.00
26376;BME280;30544;42.196;24.336;2023-03-01T00:28:46;99903.94;;;6.76;100.00
26376;BME280;30544;42.196;24.336;2023-03-01T00:31:14;99908.09;;;7.20;100.00
26376;BME280;30544;42.196;24.336;2023-03-01T00:33:42;99907.22;;;7.06;100.00
26376;BME280;30544;42.196;24.336;2023-03-01T00:36:11;99908.72;;;7.09;100.00
26376;BME280;30544;42.196;24.336;2023-03-01T00:38:40;99899.34;;;7.03;100.00
26376;BME280;30544;42.196;24.336;2023-03-01T00:41:09;99904.66;;;7.05;100.00
26376;BME280;30544;42.196;24.336;2023-03-01T00:43:36;99892.38;;;7.07;100.00
26376;BME280;30544;42.196;24.336;2023-03-01T00:46:07;99902.13;;;7.10;100.00
26376;BME280;30544;42.196;24.336;2023-03-01T00:48:34;99896.59;;;7.03;100.00
26376;BME280;30544;42.196;24.336;2023-03-01T00:51:05;99897.69;;;7.15;100.00
26376;BME280;30544;42.196;24.336;2023-03-01T00:53:32;99882.38;;;7.00;100.00
26376;BME280;30544;42.196;24.336;2023-03-01T00:55:59;99884.75;;;7.16;100.00
26376;BME280;30544;42.196;24.336;2023-03-01T00:58:26;99880.50;;;7.27;100.00
26376;BME280;30544;42.196;24.336;2023-03-01T01:00:52;99875.22;;;7.25;100.00
26376;BME280;30544;42.196;24.336;2023-03-01T01:03:21;99872.19;;;6.93;100.00
26376;BME280;30544;42.196;24.336;2023-03-01T01:05:50;99875.38;;;6.97;100.00
26376;BME280;30544;42.196;24.336;2023-03-01T01:08:17;99881.34;;;7.07;100.00
26376;BME280;30544;42.196;24.336;2023-03-01T01:10:44;99868.38;;;6.94;100.00
26376;BME280;30544;42.196;24.336;2023-03-01T01:13:11;99877.06;;;6.98;100.00
26376;BME280;30544;42.196;24.336;2023-03-01T01:15:38;99872.09;;;6.67;100.00
26376;BME280;30544;42.196;24.336;2023-03-01T01:18:05;99862.22;;;6.92;100.00
26376;BME280;30544;42.196;24.336;2023-03-01T01:20:35;99861.38;;;7.18;100.00
26376;BME280;30544;42.196;24.336;2023-03-01T01:23:02;99860.72;;;6.90;100.00
26376;BME280;30544;42.196;24.336;2023-03-01T01:25:29;99862.03;;;7.07;100.00
26376;BME280;30544;42.196;24.336;2023-03-01T01:27:55;99863.94;;;7.07;100.00
26376;BME280;30544;42.196;24.336;2023-03-01T01:30:22;99861.41;;;7.38;100.00
26376;BME280;30544;42.196;24.336;2023-03-01T01:32:49;99862.66;;;7.16;100.00
26376;BME280;30544;42.196;24.336;2023-03-01T01:35:16;99860.53;;;7.18;100.00
26376;BME280;30544;42.196;24.336;2023-03-01T01:37:44;99859.94;;;7.49;100.00
26376;BME280;30544;42.196;24.336;2023-03-01T01:40:12;99865.22;;;7.31;100.00
26376;BME280;30544;42.196;24.336;2023-03-01T01:42:39;99858.44;;;7.07;100.00
26376;BME280;30544;42.196;24.336;2023-03-01T01:45:26;99865.84;;;7.06;100.00
26376;BME280;30544;42.196;24.336;2023-03-01T01:47:55;99858.44;;;7.33;100.00
26376;BME280;30544;42.196;24.336;2023-03-01T01:50:24;99860.06;;;6.81;100.00
26376;BME280;30544;42.196;24.336;2023-03-01T01:52:54;99864.38;;;7.23;100.00
26376;BME280;30544;42.196;24.336;2023-03-01T01:55:23;99862.47;;;7.11;100.00
26376;BME280;30544;42.196;24.336;2023-03-01T01:57:54;99855.63;;;7.00;100.00
26376;BME280;30544;42.196;24.336;2023-03-01T02:00:26;99856.47;;;6.94;100.00
26376;BME280;30544;42.196;24.336;2023-03-01T02:02:56;99855.25;;;7.23;100.00
26376;BME280;30544;42.196;24.336;2023-03-01T02:05:32;99855.66;;;7.20;100.00
26376;BME280;30544;42.196;24.336;2023-03-01T02:08:03;99839.09;;;7.13;100.00
26376;BME280;30544;42.196;24.336;2023-03-01T02:10:32;99850.78;;;7.15;100.00
26376;BME280;30544;42.196;24.336;2023-03-01T02:13:00;99842.50;;;7.15;100.00
26376;BME280;30544;42.196;24.336;2023-03-01T02:15:31;99848.34;;;6.66;100.00
26376;BME280;30544;42.196;24.336;2023-03-01T02:17:59;99846.13;;;7.09;100.00
26376;BME280;30544;42.196;24.336;2023-03-01T02:20:33;99845.00;;;6.84;100.00
26376;BME280;30544;42.196;24.336;2023-03-01T02:23:03;99843.56;;;7.08;100.00
26376;BME280;30544;42.196;24.336;2023-03-01T02:25:36;99834.44;;;7.14;100.00
26376;BME280;30544;42.196;24.336;2023-03-01T02:30:39;99846.75;;;7.11;100.00
26376;BME280;30544;42.196;24.336;2023-03-01T02:33:26;99837.19;;;7.14;100.00
26376;BME280;30544;42.196;24.336;2023-03-01T02:35:54;99839.28;;;7.05;100.00
26376;BME280;30544;42.196;24.336;2023-03-01T02:38:22;99835.88;;;6.83;100.00
26376;BME280;30544;42.196;24.336;2023-03-01T02:40:49;99836.50;;;6.79;100.00
26376;BME280;30544;42.196;24.336;2023-03-01T02:43:18;99836.06;;;6.75;100.00
26376;BME280;30544;42.196;24.336;2023-03-01T02:45:50;99836.13;;;7.02;100.00
26376;BME280;30544;42.196;24.336;2023-03-01T02:48:18;99836.13;;;7.15;100.00
26376;BME280;30544;42.196;24.336;2023-03-01T02:50:54;99839.50;;;6.90;100.00
26376;BME280;30544;42.196;24.336;2023-03-01T02:53:32;99833.75;;;6.72;100.00
26376;BME280;30544;42.196;24.336;2023-03-01T02:56:02;99823.56;;;6.79;100.00
26376;BME280;30544;42.196;24.336;2023-03-01T02:58:29;99832.75;;;7.06;100.00
26376;BME280;30544;42.196;24.336;2023-03-01T03:00:57;99834.66;;;7.06;100.00
26376;BME280;30544;42.196;24.336;2023-03-01T03:03:26;99833.78;;;6.99;100.00
26376;BME280;30544;42.196;24.336;2023-03-01T03:05:52;99828.28;;;7.18;100.00
26376;BME280;30544;42.196;24.336;2023-03-01T03:08:19;99832.75;;;7.33;100.00
26376;BME280;30544;42.196;24.336;2023-03-01T03:10:49;99829.28;;;6.84;100.00
26376;BME280;30544;42.196;24.336;2023-03-01T03:13:16;99828.69;;;6.96;100.00
26376;BME280;30544;42.196;24.336;2023-03-01T03:15:43;99820.41;;;7.02;100.00
26376;BME280;30544;42.196;24.336;2023-03-01T03:18:14;99828.69;;;7.02;100.00
26376;BME280;30544;42.196;24.336;2023-03-01T03:20:42;99830.19;;;6.91;100.00
26376;BME280;30544;42.196;24.336;2023-03-01T03:23:10;99833.56;;;7.00;100.00
26376;BME280;30544;42.196;24.336;2023-03-01T03:25:37;99835.03;;;6.76;100.00
26376;BME280;30544;42.196;24.336;2023-03-01T03:28:04;99830.59;;;7.02;100.00
26376;BME280;30544;42.196;24.336;2023-03-01T03:30:37;99832.91;;;6.78;100.00
26376;BME280;30544;42.196;24.336;2023-03-01T03:33:05;99829.53;;;6.96;100.00
26376;BME280;30544;42.196;24.336;2023-03-01T03:35:39;99831.66;;;7.01;100.00
26376;BME280;30544;42.196;24.336;2023-03-01T03:38:08;99828.84;;;6.68;100.00
26376;BME280;30544;42.196;24.336;2023-03-01T03:40:42;99826.91;;;6.68;100.00
26376;BME280;30544;42.196;24.336;2023-03-01T03:43:13;99832.25;;;6.76;100.00
26376;BME280;30544;42.196;24.336;2023-03-01T03:45:40;99827.81;;;6.88;100.00
26376;BME280;30544;42.196;24.336;2023-03-01T03:48:08;99832.47;;;6.81;100.00
26376;BME280;30544;42.196;24.336;2023-03-01T03:50:37;99828.66;;;6.82;100.00
26376;BME280;30544;42.196;24.336;2023-03-01T03:53:06;99827.41;;;6.91;100.00
26376;BME280;30544;42.196;24.336;2023-03-01T03:55:34;99826.75;;;6.76;100.00
26376;BME280;30544;42.196;24.336;2023-03-01T03:58:05;99829.56;;;7.09;100.00
26376;BME280;30544;42.196;24.336;2023-03-01T04:00:34;99832.06;;;6.84;100.00
26376;BME280;30544;42.196;24.336;2023-03-01T04:03:01;99827.34;;;6.65;100.00
26376;BME280;30544;42.196;24.336;2023-03-01T04:05:28;99835.41;;;6.60;100.00
26376;BME280;30544;42.196;24.336;2023-03-01T04:07:57;99843.50;;;6.88;100.00
26376;BME280;30544;42.196;24.336;2023-03-01T04:10:36;99844.81;;;7.05;100.00
26376;BME280;30544;42.196;24.336;2023-03-01T04:13:03;99842.22;;;6.84;100.00
26376;BME280;30544;42.196;24.336;2023-03-01T04:15:31;99842.06;;;6.99;100.00
26376;BME280;30544;42.196;24.336;2023-03-01T04:17:59;99841.22;;;6.98;100.00
26376;BME280;30544;42.196;24.336;2023-03-01T04:20:28;99839.75;;;7.09;100.00
26376;BME280;30544;42.196;24.336;2023-03-01T04:23:02;99836.97;;;7.02;100.00
26376;BME280;30544;42.196;24.336;2023-03-01T04:25:37;99839.72;;;6.96;100.00
26376;BME280;30544;42.196;24.336;2023-03-01T04:28:03;99836.34;;;7.20;100.00
26376;BME280;30544;42.196;24.336;2023-03-01T04:30:30;99834.84;;;7.04;100.00
26376;BME280;30544;42.196;24.336;2023-03-01T04:33:02;99841.63;;;7.02;100.00
26376;BME280;30544;42.196;24.336;2023-03-01T04:35:29;99846.47;;;6.86;100.00
26376;BME280;30544;42.196;24.336;2023-03-01T04:37:56;99845.63;;;6.86;100.00
26376;BME280;30544;42.196;24.336;2023-03-01T04:40:24;99849.94;;;7.08;100.00
26376;BME280;30544;42.196;24.336;2023-03-01T04:42:51;99846.53;;;7.13;100.00
26376;BME280;30544;42.196;24.336;2023-03-01T04:45:18;99840.78;;;7.01;100.00
26376;BME280;30544;42.196;24.336;2023-03-01T04:47:46;99847.19;;;7.08;100.00
26376;BME280;30544;42.196;24.336;2023-03-01T04:50:15;99849.88;;;6.88;100.00
26376;BME280;30544;42.196;24.336;2023-03-01T04:52:43;99840.81;;;7.28;100.00
26376;BME280;30544;42.196;24.336;2023-03-01T04:55:10;99837.78;;;6.83;100.00
26376;BME280;30544;42.196;24.336;2023-03-01T04:57:39;99835.06;;;7.16;100.00
26376;BME280;30544;42.196;24.336;2023-03-01T05:00:09;99830.63;;;7.35;100.00
26376;BME280;30544;42.196;24.336;2023-03-01T05:02:50;99840.19;;;7.06;100.00
26376;BME280;30544;42.196;24.336;2023-03-01T05:05:24;99829.28;;;6.84;100.00
26376;BME280;30544;42.196;24.336;2023-03-01T05:07:53;99817.22;;;6.92;100.00
26376;BME280;30544;42.196;24.336;2023-03-01T05:10:21;99832.94;;;6.98;100.00
26376;BME280;30544;42.196;24.336;2023-03-01T05:12:50;99834.84;;;7.17;100.00
26376;BME280;30544;42.196;24.336;2023-03-01T05:15:18;99839.72;;;7.02;100.00
26376;BME280;30544;42.196;24.336;2023-03-01T05:17:47;99839.97;;;7.07;100.00
26376;BME280;30544;42.196;24.336;2023-03-01T05:20:14;99846.50;;;6.93;100.00
26376;BME280;30544;42.196;24.336;2023-03-01T05:22:41;99842.88;;;6.73;100.00
26376;BME280;30544;42.196;24.336;2023-03-01T05:25:08;99849.06;;;7.01;100.00
26376;BME280;30544;42.196;24.336;2023-03-01T05:27:35;99853.34;;;7.23;100.00
26376;BME280;30544;42.196;24.336;2023-03-01T05:30:04;99854.56;;;7.01;100.00
26376;BME280;30544;42.196;24.336;2023-03-01T05:32:40;99849.03;;;6.81;100.00
26376;BME280;30544;42.196;24.336;2023-03-01T05:35:08;99856.09;;;7.10;100.00
26376;BME280;30544;42.196;24.336;2023-03-01T05:37:39;99848.63;;;6.98;100.00
26376;BME280;30544;42.196;24.336;2023-03-01T05:40:08;99856.75;;;7.32;100.00
26376;BME280;30544;42.196;24.336;2023-03-01T05:42:44;99856.91;;;7.04;100.00
26376;BME280;30544;42.196;24.336;2023-03-01T05:45:13;99863.69;;;6.95;100.00
26376;BME280;30544;42.196;24.336;2023-03-01T05:47:41;99863.13;;;7.26;100.00
26376;BME280;30544;42.196;24.336;2023-03-01T05:50:11;99868.22;;;7.22;100.00
26376;BME280;30544;42.196;24.336;2023-03-01T05:52:38;99869.69;;;7.25;100.00
26376;BME280;30544;42.196;24.336;2023-03-01T05:55:06;99868.41;;;7.08;100.00
26376;BME280;30544;42.196;24.336;2023-03-01T05:57:33;99870.88;;;6.76;100.00
26376;BME280;30544;42.196;24.336;2023-03-01T06:00:00;99865.44;;;7.22;100.00
26376;BME280;30544;42.196;24.336;2023-03-01T06:02:28;99871.16;;;7.08;100.00
26376;BME280;30544;42.196;24.336;2023-03-01T06:04:55;99878.34;;;6.89;100.00
26376;BME280;30544;42.196;24.336;2023-03-01T06:07:22;99881.34;;;7.14;100.00
26376;BME280;30544;42.196;24.336;2023-03-01T06:09:49;99867.34;;;7.15;100.00
26376;BME280;30544;42.196;24.336;2023-03-01T06:12:16;99873.66;;;6.89;100.00
26376;BME280;30544;42.196;24.336;2023-03-01T06:14:42;99884.09;;;7.07;100.00
26376;BME280;30544;42.196;24.336;2023-03-01T06:17:09;99875.59;;;7.22;100.00
26376;BME280;30544;42.196;24.336;2023-03-01T06:19:37;99874.75;;;7.15;100.00
26376;BME280;30544;42.196;24.336;2023-03-01T06:22:04;99874.31;;;6.98;100.00
26376;BME280;30544;42.196;24.336;2023-03-01T06:24:31;99890.59;;;6.86;100.00
26376;BME280;30544;42.196;24.336;2023-03-01T06:26:58;99882.38;;;7.00;100.00
26376;BME280;30544;42.196;24.336;2023-03-01T06:29:25;99884.75;;;7.09;100.00
26376;BME280;30544;42.196;24.336;2023-03-01T06:31:52;99882.16;;;7.01;100.00
26376;BME280;30544;42.196;24.336;2023-03-01T06:34:18;99883.00;;;7.02;100.00
26376;BME280;30544;42.196;24.336;2023-03-01T06:36:48;99882.09;;;6.75;100.00
26376;BME280;30544;42.196;24.336;2023-03-01T06:39:15;99888.31;;;6.97;100.00
26376;BME280;30544;42.196;24.336;2023-03-01T06:41:43;99888.78;;;7.13;100.00
26376;BME280;30544;42.196;24.336;2023-03-01T06:44:09;99896.22;;;7.33;100.00
26376;BME280;30544;42.196;24.336;2023-03-01T06:46:36;99900.03;;;7.18;100.00
26376;BME280;30544;42.196;24.336;2023-03-01T06:49:03;99885.78;;;7.21;100.00
26376;BME280;30544;42.196;24.336;2023-03-01T06:51:35;99888.53;;;7.02;100.00
26376;BME280;30544;42.196;24.336;2023-03-01T06:54:03;99901.25;;;7.03;100.00
26376;BME280;30544;42.196;24.336;2023-03-01T06:56:30;99895.81;;;7.22;100.00
26376;BME280;30544;42.196;24.336;2023-03-01T06:58:57;99890.28;;;7.29;100.00
26376;BME280;30544;42.196;24.336;2023-03-01T07:01:24;99889.41;;;7.22;100.00
26376;BME280;30544;42.196;24.336;2023-03-01T07:03:51;99894.75;;;7.30;100.00
26376;BME280;30544;42.196;24.336;2023-03-01T07:06:18;99889.44;;;7.29;100.00
26376;BME280;30544;42.196;24.336;2023-03-01T07:08:45;99883.72;;;7.50;100.00
26376;BME280;30544;42.196;24.336;2023-03-01T07:11:13;99898.75;;;7.08;100.00
26376;BME280;30544;42.196;24.336;2023-03-01T07:13:40;99892.81;;;7.17;100.00
26376;BME280;30544;42.196;24.336;2023-03-01T07:16:07;99888.59;;;7.41;100.00
26376;BME280;30544;42.196;24.336;2023-03-01T07:18:34;99892.41;;;7.27;100.00
26376;BME280;30544;42.196;24.336;2023-03-01T07:21:04;99889.22;;;7.23;100.00
26376;BME280;30544;42.196;24.336;2023-03-01T07:23:31;99891.31;;;7.15;100.00
26376;BME280;30544;42.196;24.336;2023-03-01T07:25:58;99893.25;;;7.34;100.00
26376;BME280;30544;42.196;24.336;2023-03-01T07:28:27;99889.63;;;7.20;100.00
26376;BME280;30544;42.196;24.336;2023-03-01T07:30:54;99887.31;;;7.24;100.00
26376;BME280;30544;42.196;24.336;2023-03-01T07:33:21;99890.28;;;7.49;100.00
26376;BME280;30544;42.196;24.336;2023-03-01T07:35:47;99875.63;;;7.95;100.00
26376;BME280;30544;42.196;24.336;2023-03-01T07:38:14;99883.31;;;7.60;100.00
26376;BME280;30544;42.196;24.336;2023-03-01T07:40:41;99887.31;;;7.37;100.00
26376;BME280;30544;42.196;24.336;2023-03-01T07:43:08;99894.94;;;7.55;100.00
26376;BME280;30544;42.196;24.336;2023-03-01T07:45:36;99883.50;;;7.45;100.00
26376;BME280;30544;42.196;24.336;2023-03-01T07:48:03;99887.53;;;7.42;100.00
26376;BME280;30544;42.196;24.336;2023-03-01T07:50:29;99884.97;;;7.28;100.00
26376;BME280;30544;42.196;24.336;2023-03-01T07:52:56;99880.97;;;7.43;100.00
26376;BME280;30544;42.196;24.336;2023-03-01T07:55:23;99875.63;;;7.35;100.00
26376;BME280;30544;42.196;24.336;2023-03-01T07:57:50;99876.66;;;7.87;100.00
26376;BME280;30544;42.196;24.336;2023-03-01T08:00:17;99882.63;;;7.71;100.00
26376;BME280;30544;42.196;24.336;2023-03-01T08:02:45;99873.72;;;7.55;100.00
26376;BME280;30544;42.196;24.336;2023-03-01T08:05:15;99873.72;;;7.82;100.00
26376;BME280;30544;42.196;24.336;2023-03-01T08:07:41;99867.38;;;7.75;100.00
26376;BME280;30544;42.196;24.336;2023-03-01T08:10:10;99872.03;;;7.48;100.00
26376;BME280;30544;42.196;24.336;2023-03-01T08:12:37;99869.28;;;7.74;100.00
26376;BME280;30544;42.196;24.336;2023-03-01T08:15:05;99869.44;;;7.99;100.00
26376;BME280;30544;42.196;24.336;2023-03-01T08:17:32;99874.59;;;7.43;100.00
26376;BME280;30544;42.196;24.336;2023-03-01T08:20:00;99871.16;;;7.94;100.00
26376;BME280;30544;42.196;24.336;2023-03-01T08:22:31;99860.75;;;7.96;100.00
26376;BME280;30544;42.196;24.336;2023-03-01T08:24:58;99877.78;;;7.73;100.00
26376;BME280;30544;42.196;24.336;2023-03-01T08:27:25;99875.81;;;8.00;100.00
26376;BME280;30544;42.196;24.336;2023-03-01T08:29:51;99870.31;;;7.67;100.00
26376;BME280;30544;42.196;24.336;2023-03-01T08:32:18;99876.06;;;7.65;100.00
26376;BME280;30544;42.196;24.336;2023-03-01T08:34:46;99866.47;;;7.88;100.00
26376;BME280;30544;42.196;24.336;2023-03-01T08:37:14;99860.13;;;7.74;100.00
26376;BME280;30544;42.196;24.336;2023-03-01T08:39:41;99865.22;;;7.83;100.00
26376;BME280;30544;42.196;24.336;2023-03-01T08:42:07;99863.72;;;7.81;100.00
26376;BME280;30544;42.196;24.336;2023-03-01T08:44:34;99865.25;;;7.64;100.00
26376;BME280;30544;42.196;24.336;2023-03-01T08:47:01;99875.31;;;8.23;100.00
26376;BME280;30544;42.196;24.336;2023-03-01T08:49:30;99870.19;;;8.33;100.00
26376;BME280;30544;42.196;24.336;2023-03-01T08:51:58;99867.25;;;8.21;100.00
26376;BME280;30544;42.196;24.336;2023-03-01T08:54:26;99865.22;;;7.83;100.00
26376;BME280;30544;42.196;24.336;2023-03-01T08:56:52;99861.56;;;8.03;100.00
26376;BME280;30544;42.196;24.336;2023-03-01T08:59:19;99863.31;;;7.91;100.00
26376;BME280;30544;42.196;24.336;2023-03-01T09:01:46;99869.22;;;8.01;100.00
26376;BME280;30544;42.196;24.336;2023-03-01T09:04:14;99868.31;;;8.27;100.00
26376;BME280;30544;42.196;24.336;2023-03-01T09:06:42;99867.97;;;7.83;100.00
26376;BME280;30544;42.196;24.336;2023-03-01T09:09:13;99871.94;;;8.27;100.00
26376;BME280;30544;42.196;24.336;2023-03-01T09:11:42;99878.97;;;8.17;100.00
26376;BME280;30544;42.196;24.336;2023-03-01T09:14:11;99876.66;;;8.00;100.00
26376;BME280;30544;42.196;24.336;2023-03-01T09:16:38;99872.81;;;8.01;100.00
26376;BME280;30544;42.196;24.336;2023-03-01T09:19:05;99866.06;;;7.84;100.00
26376;BME280;30544;42.196;24.336;2023-03-01T09:21:32;99864.78;;;7.87;100.00
26376;BME280;30544;42.196;24.336;2023-03-01T09:23:58;99875.75;;;8.20;100.00
26376;BME280;30544;42.196;24.336;2023-03-01T09:26:25;99866.41;;;8.34;100.00
26376;BME280;30544;42.196;24.336;2023-03-01T09:28:54;99858.19;;;7.94;100.00
26376;BME280;30544;42.196;24.336;2023-03-01T09:31:23;99869.63;;;8.04;100.00
26376;BME280;30544;42.196;24.336;2023-03-01T09:33:52;99865.53;;;8.33;100.00
26376;BME280;30544;42.196;24.336;2023-03-01T09:36:21;99860.66;;;8.29;99.70
26376;BME280;30544;42.196;24.336;2023-03-01T09:38:48;99864.75;;;8.78;99.34
26376;BME280;30544;42.196;24.336;2023-03-01T09:41:31;99861.63;;;8.54;98.73
26376;BME280;30544;42.196;24.336;2023-03-01T09:44:09;99849.63;;;8.80;97.30
26376;BME280;30544;42.196;24.336;2023-03-01T09:46:40;99847.47;;;8.31;98.31
26376;BME280;30544;42.196;24.336;2023-03-01T09:49:12;99848.06;;;8.46;98.44
26376;BME280;30544;42.196;24.336;2023-03-01T09:51:43;99846.69;;;8.68;98.96
26376;BME280;30544;42.196;24.336;2023-03-01T09:54:14;99843.47;;;8.71;97.60
26376;BME280;30544;42.196;24.336;2023-03-01T09:56:47;99840.06;;;8.76;96.34
26376;BME280;30544;42.196;24.336;2023-03-01T09:59:25;99841.59;;;8.65;97.66
26376;BME280;30544;42.196;24.336;2023-03-01T10:01:58;99836.41;;;8.37;97.40
26376;BME280;30544;42.196;24.336;2023-03-01T10:04:38;99836.25;;;8.12;99.80
26376;BME280;30544;42.196;24.336;2023-03-01T10:07:20;99841.44;;;8.60;98.46
26376;BME280;30544;42.196;24.336;2023-03-01T10:09:49;99823.59;;;8.88;97.78
26376;BME280;30544;42.196;24.336;2023-03-01T10:12:18;99830.81;;;8.51;97.95
26376;BME280;30544;42.196;24.336;2023-03-01T10:14:55;99828.97;;;8.38;97.82
26376;BME280;30544;42.196;24.336;2023-03-01T10:17:28;99831.56;;;8.71;97.36
26376;BME280;30544;42.196;24.336;2023-03-01T10:19:57;99830.09;;;8.68;97.16
26376;BME280;30544;42.196;24.336;2023-03-01T10:22:36;99829.75;;;8.58;97.45
26376;BME280;30544;42.196;24.336;2023-03-01T10:25:04;99835.69;;;8.55;97.50
26376;BME280;30544;42.196;24.336;2023-03-01T10:27:37;99828.34;;;8.36;98.48
26376;BME280;30544;42.196;24.336;2023-03-01T10:30:13;99821.97;;;8.80;97.60
26376;BME280;30544;42.196;24.336;2023-03-01T10:32:44;99833.81;;;8.49;97.58
26376;BME280;30544;42.196;24.336;2023-03-01T10:35:19;99823.69;;;8.74;96.24
26376;BME280;30544;42.196;24.336;2023-03-01T10:37:57;99819.22;;;9.05;95.88
26376;BME280;30544;42.196;24.336;2023-03-01T10:40:24;99816.38;;;8.87;96.04
26376;BME280;30544;42.196;24.336;2023-03-01T10:42:51;99814.06;;;8.84;95.81
26376;BME280;30544;42.196;24.336;2023-03-01T10:45:31;99809.03;;;8.67;96.67
26376;BME280;30544;42.196;24.336;2023-03-01T10:48:13;99810.16;;;8.60;96.15
26376;BME280;30544;42.196;24.336;2023-03-01T10:50:40;99804.75;;;8.71;97.38
26376;BME280;30544;42.196;24.336;2023-03-01T10:53:21;99809.19;;;8.79;97.78
26376;BME280;30544;42.196;24.336;2023-03-01T10:55:57;99803.88;;;8.78;97.99
26376;BME280;30544;42.196;24.336;2023-03-01T10:58:25;99791.31;;;8.82;97.73
26376;BME280;30544;42.196;24.336;2023-03-01T11:00:54;99790.19;;;8.51;98.18
26376;BME280;30544;42.196;24.336;2023-03-01T11:03:24;99786.44;;;8.77;98.12
26376;BME280;30544;42.196;24.336;2023-03-01T11:05:54;99776.84;;;8.80;96.33
26376;BME280;30544;42.196;24.336;2023-03-01T11:08:36;99782.56;;;8.85;96.65
26376;BME280;30544;42.196;24.336;2023-03-01T11:11:06;99778.31;;;9.14;96.74
26376;BME280;30544;42.196;24.336;2023-03-01T11:13:33;99765.47;;;9.19;95.76
26376;BME280;30544;42.196;24.336;2023-03-01T11:16:05;99755.88;;;8.97;96.27
26376;BME280;30544;42.196;24.336;2023-03-01T11:18:33;99763.09;;;8.98;96.08
26376;BME280;30544;42.196;24.336;2023-03-01T11:21:01;99761.00;;;9.18;95.98
26376;BME280;30544;42.196;24.336;2023-03-01T11:23:30;99748.66;;;8.96;95.44
26376;BME280;30544;42.196;24.336;2023-03-01T11:26:00;99750.03;;;8.80;95.96
26376;BME280;30544;42.196;24.336;2023-03-01T11:28:29;99745.66;;;8.97;95.29
26376;BME280;30544;42.196;24.336;2023-03-01T11:31:00;99741.25;;;9.15;95.33
26376;BME280;30544;42.196;24.336;2023-03-01T11:33:36;99741.88;;;9.17;94.90
26376;BME280;30544;42.196;24.336;2023-03-01T11:36:10;99733.94;;;9.20;92.97
26376;BME280;30544;42.196;24.336;2023-03-01T11:38:40;99739.03;;;9.23;93.64
26376;BME280;30544;42.196;24.336;2023-03-01T11:41:11;99734.28;;;10.10;91.06
26376;BME280;30544;42.196;24.336;2023-03-01T11:43:47;99726.91;;;9.86;91.16
26376;BME280;30544;42.196;24.336;2023-03-01T11:46:40;99724.00;;;9.38;91.73
26376;BME280;30544;42.196;24.336;2023-03-01T11:49:29;99729.88;;;9.48;92.16
26376;BME280;30544;42.196;24.336;2023-03-01T11:52:03;99725.63;;;9.27;91.24
26376;BME280;30544;42.196;24.336;2023-03-01T11:54:45;99722.66;;;9.22;91.86
26376;BME280;30544;42.196;24.336;2023-03-01T11:57:23;99721.19;;;9.19;92.47
26376;BME280;30544;42.196;24.336;2023-03-01T12:00:31;99722.94;;;8.89;94.25
26376;BME280;30544;42.196;24.336;2023-03-01T12:03:26;99724.06;;;9.31;91.31
26376;BME280;30544;42.196;24.336;2023-03-01T12:08:54;99723.56;;;9.41;89.07
26376;BME280;30544;42.196;24.336;2023-03-01T12:11:36;99714.47;;;9.33;91.17
26376;BME280;30544;42.196;24.336;2023-03-01T12:14:26;99717.81;;;9.60;89.37
26376;BME280;30544;42.196;24.336;2023-03-01T12:17:09;99713.22;;;9.04;90.13
26376;BME280;30544;42.196;24.336;2023-03-01T12:19:58;99713.50;;;9.21;91.12
26376;BME280;30544;42.196;24.336;2023-03-01T12:22:32;99719.59;;;9.05;92.53
26376;BME280;30544;42.196;24.336;2023-03-01T12:25:29;99714.31;;;9.28;91.98
26376;BME280;30544;42.196;24.336;2023-03-01T12:28:17;99707.41;;;8.88;94.42
26376;BME280;30544;42.196;24.336;2023-03-01T12:31:01;99707.06;;;9.27;92.57
26376;BME280;30544;42.196;24.336;2023-03-01T12:33:39;99710.91;;;8.77;92.92
26376;BME280;30544;42.196;24.336;2023-03-01T12:36:19;99706.78;;;8.86;91.70
26376;BME280;30544;42.196;24.336;2023-03-01T12:38:59;99697.94;;;9.02;91.95
26376;BME280;30544;42.196;24.336;2023-03-01T12:41:42;99699.75;;;9.58;90.60
26376;BME280;30544;42.196;24.336;2023-03-01T12:44:28;99697.97;;;9.82;87.89
26376;BME280;30544;42.196;24.336;2023-03-01T12:47:19;99697.88;;;9.09;90.36
26376;BME280;30544;42.196;24.336;2023-03-01T12:49:49;99703.16;;;8.92;92.54
26376;BME280;30544;42.196;24.336;2023-03-01T12:52:22;99706.84;;;9.04;91.28
26376;BME280;30544;42.196;24.336;2023-03-01T12:54:53;99700.50;;;9.47;90.57
26376;BME280;30544;42.196;24.336;2023-03-01T12:57:29;99693.72;;;9.43;89.88
26376;BME280;30544;42.196;24.336;2023-03-01T13:00:18;99696.91;;;9.21;90.82
26376;BME280;30544;42.196;24.336;2023-03-01T13:02:53;99693.41;;;9.51;89.42
26376;BME280;30544;42.196;24.336;2023-03-01T13:05:33;99689.53;;;8.90;91.59
26376;BME280;30544;42.196;24.336;2023-03-01T13:08:07;99689.97;;;9.12;91.49
26376;BME280;30544;42.196;24.336;2023-03-01T13:10:43;99696.41;;;9.49;92.71
26376;BME280;30544;42.196;24.336;2023-03-01T13:13:19;99694.03;;;9.71;90.29
26376;BME280;30544;42.196;24.336;2023-03-01T13:15:46;99688.50;;;9.53;91.23